Time;durP1;ratioP1;P1;durP2;ratioP2;P2;SDS_P1;SDS_P2;PMS_P1;PMS_P2;Temp;Humidity;BMP_temperature;BMP_pressure;BME280_temperature;BME280_humidity;BME280_pressure;Samples;Min_cycle;Max_cycle;Signal;HPM_P1;HPM_P2
2022/08/17 00:00:15;;;;;;;;;;;22.20;72.60;;;;;;5004249;28;19941;-75
2022/08/17 00:02:55;;;;;;;;;;;22.20;72.60;;;;;;5002403;28;19929;-76
2022/08/17 00:05:23;;;;;;;;;;;22.20;72.60;;;;;;5005274;28;19926;-76
2022/08/17 00:07:50;;;;;;;;;;;22.10;72.60;;;;;;5007032;28;20007;-75
2022/08/17 00:10:17;;;;;;;;;;;22.10;72.60;;;;;;4991083;28;20040;-76
2022/08/17 00:12:44;;;;;;;;;;;22.10;72.70;;;;;;5008786;28;19926;-76
2022/08/17 00:15:12;;;;;;;;;;;22.10;72.70;;;;;;5001531;28;19976;-76
2022/08/17 00:17:40;;;;;;;;;;;22.00;72.60;;;;;;5008703;28;19932;-75
2022/08/17 00:20:08;;;;;;;;;;;22.00;72.70;;;;;;5006330;28;19992;-76
2022/08/17 00:22:36;;;;;;;;;;;22.00;72.70;;;;;;5004496;28;19981;-75
2022/08/17 00:25:04;;;;;;;;;;;21.90;72.60;;;;;;4998533;28;19934;-74
2022/08/17 00:27:30;;;;;;;;;;;21.90;72.70;;;;;;4986439;28;19929;-75
2022/08/17 00:29:57;;;;;;;;;;;21.90;72.80;;;;;;5004169;28;19965;-75
2022/08/17 00:32:24;;;;;;;;;;;21.80;72.60;;;;;;5020130;28;20012;-76
2022/08/17 00:34:52;;;;;;;;;;;21.80;72.80;;;;;;5002727;28;19929;-75
2022/08/17 00:37:19;;;;;;;;;;;21.80;72.80;;;;;;4994996;28;20404;-75
2022/08/17 00:39:47;;;;;;;;;;;21.80;72.80;;;;;;5006797;28;19925;-75
2022/08/17 00:42:14;;;;;;;;;;;21.70;72.70;;;;;;5005097;28;20024;-75
2022/08/17 00:44:41;;;;;;;;;;;21.70;72.70;;;;;;5008942;28;19964;-75
2022/08/17 00:47:08;;;;;;;;;;;21.70;72.80;;;;;;5006892;28;19930;-76
2022/08/17 00:49:35;;;;;;;;;;;21.70;72.70;;;;;;4988433;28;20164;-74
2022/08/17 00:52:07;;;;;;;;;;;21.70;72.80;;;;;;5005347;28;19937;-75
2022/08/17 00:54:36;;;;;;;;;;;21.60;72.70;;;;;;5006950;28;19926;-75
2022/08/17 00:57:06;;;;;;;;;;;21.60;72.80;;;;;;5002835;28;19948;-75
2022/08/17 00:59:35;;;;;;;;;;;21.60;72.80;;;;;;5004039;28;20395;-75
2022/08/17 01:02:02;;;;;;;;;;;21.50;72.70;;;;;;5008106;28;20016;-75
2022/08/17 01:04:29;;;;;;;;;;;21.50;72.80;;;;;;4993511;28;20295;-75
2022/08/17 01:06:56;;;;;;;;;;;21.50;72.90;;;;;;5009429;28;19976;-75
2022/08/17 01:09:23;;;;;;;;;;;21.50;72.90;;;;;;4999422;28;19926;-73
2022/08/17 01:11:51;;;;;;;;;;;21.50;72.90;;;;;;5002488;28;20489;-75
2022/08/17 01:14:20;;;;;;;;;;;21.50;72.90;;;;;;5004668;28;20375;-75
2022/08/17 01:16:48;;;;;;;;;;;21.40;72.90;;;;;;5006163;28;20309;-75
2022/08/17 01:19:18;;;;;;;;;;;21.40;72.90;;;;;;4988402;28;19944;-74
2022/08/17 01:21:49;;;;;;;;;;;21.40;73.00;;;;;;5023125;28;19932;-74
2022/08/17 01:24:18;;;;;;;;;;;21.30;73.00;;;;;;5005457;28;19952;-75
2022/08/17 01:26:45;;;;;;;;;;;21.30;73.00;;;;;;4984500;28;19941;-75
2022/08/17 01:29:12;;;;;;;;;;;21.30;73.00;;;;;;5005868;28;19929;-74
2022/08/17 01:31:43;;;;;;;;;;;21.30;73.00;;;;;;5005159;28;19964;-75
2022/08/17 01:34:11;;;;;;;;;;;21.20;72.90;;;;;;5003942;28;19929;-75
2022/08/17 01:36:39;;;;;;;;;;;21.20;73.00;;;;;;5004329;28;20047;-74
2022/08/17 01:39:06;;;;;;;;;;;21.20;73.00;;;;;;4979376;23;19924;-75
2022/08/17 01:41:35;;;;;;;;;;;21.20;73.00;;;;;;4988598;22;20425;-75
2022/08/17 01:44:04;;;;;;;;;;;21.20;73.10;;;;;;5022777;28;20475;-75
2022/08/17 01:46:33;;;;;;;;;;;21.20;73.10;;;;;;5009144;28;19979;-77
2022/08/17 01:49:00;;;;;;;;;;;21.10;73.00;;;;;;5004911;28;20399;-76
2022/08/17 01:51:31;;;;;;;;;;;21.10;73.10;;;;;;5003327;28;20137;-77
2022/08/17 01:53:59;;;;;;;;;;;21.10;73.20;;;;;;5004735;28;20032;-75
2022/08/17 01:56:26;;;;;;;;;;;21.00;73.10;;;;;;4999514;28;19936;-75
2022/08/17 01:58:54;;;;;;;;;;;21.00;73.20;;;;;;5008019;28;19929;-77
2022/08/17 02:01:22;;;;;;;;;;;21.00;73.20;;;;;;5008048;28;19932;-75
2022/08/17 02:03:50;;;;;;;;;;;21.00;73.20;;;;;;4985817;28;19932;-76
2022/08/17 02:06:17;;;;;;;;;;;21.00;73.30;;;;;;4992083;28;19929;-77
2022/08/17 02:08:45;;;;;;;;;;;21.00;73.30;;;;;;5012167;28;19925;-77
2022/08/17 02:11:14;;;;;;;;;;;20.90;73.20;;;;;;5015569;28;19972;-75
2022/08/17 02:13:41;;;;;;;;;;;20.90;73.30;;;;;;5008436;28;20311;-77
2022/08/17 02:16:09;;;;;;;;;;;20.90;73.30;;;;;;5012751;28;20008;-78
2022/08/17 02:18:36;;;;;;;;;;;20.90;73.40;;;;;;5009447;28;19969;-75
2022/08/17 02:21:04;;;;;;;;;;;20.90;73.40;;;;;;5011684;28;20015;-76
2022/08/17 02:23:32;;;;;;;;;;;20.90;73.40;;;;;;5011184;28;19925;-76
2022/08/17 02:25:59;;;;;;;;;;;20.80;73.40;;;;;;5004579;28;20020;-78
2022/08/17 02:28:27;;;;;;;;;;;20.80;73.40;;;;;;5004846;28;19929;-77
2022/08/17 02:30:54;;;;;;;;;;;20.80;73.40;;;;;;5007410;28;19948;-77
2022/08/17 02:33:22;;;;;;;;;;;20.80;73.50;;;;;;4994715;28;19983;-76
2022/08/17 02:35:49;;;;;;;;;;;20.80;73.40;;;;;;5025987;28;20021;-76
2022/08/17 02:38:16;;;;;;;;;;;20.70;73.40;;;;;;5007418;28;19930;-75
2022/08/17 02:40:43;;;;;;;;;;;20.70;73.50;;;;;;4992368;28;19925;-79
2022/08/17 02:43:10;;;;;;;;;;;20.70;73.50;;;;;;5013026;28;19926;-77
2022/08/17 02:45:37;;;;;;;;;;;20.70;73.50;;;;;;5009946;28;19925;-75
2022/08/17 02:48:04;;;;;;;;;;;20.70;73.50;;;;;;5010503;28;19933;-75
2022/08/17 02:50:32;;;;;;;;;;;20.60;73.40;;;;;;5015169;28;20482;-76
2022/08/17 02:52:59;;;;;;;;;;;20.60;73.50;;;;;;4991237;28;19925;-77
2022/08/17 02:55:27;;;;;;;;;;;20.60;73.50;;;;;;4991189;28;19972;-75
2022/08/17 02:57:54;;;;;;;;;;;20.60;73.50;;;;;;5009916;28;20392;-78
2022/08/17 03:00:23;;;;;;;;;;;20.60;73.60;;;;;;5012370;28;20383;-75
2022/08/17 03:02:50;;;;;;;;;;;20.60;73.70;;;;;;5009325;28;20040;-75
2022/08/17 03:05:18;;;;;;;;;;;20.60;73.70;;;;;;5004241;28;20383;-75
2022/08/17 03:07:47;;;;;;;;;;;20.50;73.60;;;;;;4991606;28;19929;-76
2022/08/17 03:10:14;;;;;;;;;;;20.50;73.70;;;;;;5016392;28;19926;-75
2022/08/17 03:12:42;;;;;;;;;;;20.50;73.70;;;;;;5003630;28;19940;-77
2022/08/17 03:15:10;;;;;;;;;;;20.50;73.70;;;;;;5011788;28;19989;-76
2022/08/17 03:17:37;;;;;;;;;;;20.50;73.70;;;;;;5006603;28;19932;-75
2022/08/17 03:20:05;;;;;;;;;;;20.40;73.80;;;;;;5006591;28;19934;-78
2022/08/17 03:22:35;;;;;;;;;;;20.40;73.80;;;;;;5009801;28;20384;-75
2022/08/17 03:25:03;;;;;;;;;;;20.40;74.00;;;;;;5005541;28;19926;-75
2022/08/17 03:27:30;;;;;;;;;;;20.40;74.00;;;;;;4998217;28;19929;-75
2022/08/17 03:29:57;;;;;;;;;;;20.30;73.90;;;;;;5010502;28;19930;-77
2022/08/17 03:32:24;;;;;;;;;;;20.30;73.80;;;;;;4996965;28;19926;-75
2022/08/17 03:34:50;;;;;;;;;;;20.30;73.90;;;;;;5009143;28;20017;-75
2022/08/17 03:37:17;;;;;;;;;;;20.30;73.90;;;;;;5005205;28;20412;-75
2022/08/17 03:39:44;;;;;;;;;;;20.30;73.90;;;;;;5006261;28;20383;-76
2022/08/17 03:42:16;;;;;;;;;;;20.30;74.00;;;;;;5010624;28;19976;-75
2022/08/17 03:44:43;;;;;;;;;;;20.20;74.00;;;;;;5001068;28;19980;-77
2022/08/17 03:58:09;;;;;;;;;;;20.10;74.00;;;;;;5007497;28;19977;-75
2022/08/17 04:00:36;;;;;;;;;;;20.10;74.00;;;;;;5008123;28;20288;-77
2022/08/17 04:03:03;;;;;;;;;;;20.10;74.00;;;;;;5010206;28;19930;-75
2022/08/17 04:05:30;;;;;;;;;;;20.10;74.00;;;;;;5004309;28;20399;-75
2022/08/17 04:07:56;;;;;;;;;;;20.10;74.20;;;;;;5010226;28;20916;-75
2022/08/17 04:10:23;;;;;;;;;;;20.10;74.20;;;;;;4989386;28;19926;-75
2022/08/17 04:12:53;;;;;;;;;;;20.00;74.20;;;;;;5006825;28;19925;-75
2022/08/17 04:15:21;;;;;;;;;;;20.00;74.30;;;;;;5006649;28;19925;-76
2022/08/17 04:17:48;;;;;;;;;;;20.00;74.20;;;;;;4993121;28;20024;-76
2022/08/17 04:20:18;;;;;;;;;;;20.00;74.10;;;;;;5008445;28;20206;-76
2022/08/17 04:22:55;;;;;;;;;;;20.00;74.20;;;;;;5006176;28;19953;-75
2022/08/17 04:25:22;;;;;;;;;;;20.00;74.30;;;;;;5008940;28;19979;-75
2022/08/17 04:27:48;;;;;;;;;;;19.90;74.40;;;;;;5009360;28;19933;-77
2022/08/17 04:30:15;;;;;;;;;;;19.90;74.30;;;;;;5006578;28;20427;-75
2022/08/17 04:32:54;;;;;;;;;;;19.90;74.40;;;;;;5008080;28;20023;-74
2022/08/17 04:35:22;;;;;;;;;;;19.90;74.30;;;;;;5010937;28;19979;-75
2022/08/17 04:37:49;;;;;;;;;;;19.90;74.20;;;;;;5000515;28;20355;-76
2022/08/17 04:43:01;;;;;;;;;;;19.80;74.30;;;;;;5011927;28;19925;-78
2022/08/17 04:45:28;;;;;;;;;;;19.80;74.40;;;;;;5004839;28;19977;-75
2022/08/17 04:47:56;;;;;;;;;;;19.80;74.40;;;;;;5017062;28;19956;-75
2022/08/17 04:50:23;;;;;;;;;;;19.80;74.40;;;;;;5003945;28;19925;-76
2022/08/17 04:52:50;;;;;;;;;;;19.80;74.40;;;;;;5006071;28;20474;-75
2022/08/17 04:55:17;;;;;;;;;;;19.80;74.30;;;;;;5008136;28;20366;-76
2022/08/17 04:57:44;;;;;;;;;;;19.70;74.30;;;;;;4989956;28;19953;-75
2022/08/17 05:00:11;;;;;;;;;;;19.70;74.30;;;;;;5005756;28;19972;-76
2022/08/17 05:02:44;;;;;;;;;;;19.70;74.40;;;;;;5000027;28;19984;-75
2022/08/17 05:05:12;;;;;;;;;;;19.70;74.40;;;;;;4992730;28;19956;-76
2022/08/17 05:07:39;;;;;;;;;;;19.70;74.30;;;;;;5009873;28;19976;-76
2022/08/17 05:10:06;;;;;;;;;;;19.60;74.20;;;;;;5005536;28;19925;-75
2022/08/17 05:12:33;;;;;;;;;;;19.70;74.30;;;;;;4990536;28;19932;-78
2022/08/17 05:15:00;;;;;;;;;;;19.60;74.30;;;;;;5007636;28;20335;-76
2022/08/17 05:17:27;;;;;;;;;;;19.60;74.30;;;;;;5010186;28;19968;-75
2022/08/17 05:19:53;;;;;;;;;;;19.60;74.20;;;;;;5006709;28;20012;-78
2022/08/17 05:22:22;;;;;;;;;;;19.60;74.20;;;;;;5004158;28;19926;-76
2022/08/17 05:24:48;;;;;;;;;;;19.60;74.20;;;;;;5007198;28;20351;-75
2022/08/17 05:27:15;;;;;;;;;;;19.50;74.20;;;;;;4985016;28;20384;-75
2022/08/17 05:29:42;;;;;;;;;;;19.50;74.20;;;;;;5003936;28;19959;-76
2022/08/17 05:32:09;;;;;;;;;;;19.50;74.30;;;;;;5006706;28;19987;-75
2022/08/17 05:34:36;;;;;;;;;;;19.50;74.30;;;;;;5001091;28;19929;-75
2022/08/17 05:37:03;;;;;;;;;;;19.50;74.30;;;;;;4992589;28;20433;-80
2022/08/17 05:39:31;;;;;;;;;;;19.50;74.20;;;;;;5000053;28;19932;-74
2022/08/17 05:42:01;;;;;;;;;;;19.50;74.10;;;;;;4987557;28;20013;-75
2022/08/17 05:44:28;;;;;;;;;;;19.50;74.10;;;;;;5000398;28;19930;-75
2022/08/17 05:46:55;;;;;;;;;;;19.40;73.90;;;;;;5006856;28;19975;-76
2022/08/17 05:49:24;;;;;;;;;;;19.40;73.80;;;;;;5008867;28;19968;-76
2022/08/17 05:52:02;;;;;;;;;;;19.30;74.00;;;;;;4987689;28;19925;-78
2022/08/17 05:54:34;;;;;;;;;;;19.30;74.20;;;;;;5008678;28;19930;-76
2022/08/17 05:57:13;;;;;;;;;;;19.20;74.40;;;;;;4993401;28;19929;-76
2022/08/17 05:59:45;;;;;;;;;;;19.20;74.60;;;;;;4995048;28;19937;-76
2022/08/17 06:02:17;;;;;;;;;;;19.10;75.00;;;;;;5025188;28;19925;-75
2022/08/17 06:04:53;;;;;;;;;;;19.10;75.20;;;;;;5004335;28;20466;-75
2022/08/17 06:07:21;;;;;;;;;;;19.10;75.50;;;;;;5009115;28;19926;-75
2022/08/17 06:09:54;;;;;;;;;;;19.00;75.70;;;;;;4993955;28;19999;-75
2022/08/17 06:12:30;;;;;;;;;;;19.00;76.00;;;;;;5008826;28;19957;-75
2022/08/17 06:15:08;;;;;;;;;;;19.00;76.10;;;;;;5010929;28;19979;-75
2022/08/17 06:17:35;;;;;;;;;;;19.00;76.00;;;;;;5011944;28;20032;-75
2022/08/17 06:20:05;;;;;;;;;;;19.00;76.10;;;;;;5005331;28;19932;-75
2022/08/17 06:22:33;;;;;;;;;;;19.00;76.30;;;;;;5012904;28;19936;-76
2022/08/17 06:25:04;;;;;;;;;;;19.00;76.80;;;;;;5011002;28;19961;-76
2022/08/17 06:27:35;;;;;;;;;;;19.00;76.70;;;;;;5011455;28;20346;-75
2022/08/17 06:30:07;;;;;;;;;;;19.00;77.00;;;;;;5011043;28;19925;-75
2022/08/17 06:32:35;;;;;;;;;;;19.00;77.00;;;;;;5006509;28;19925;-75
2022/08/17 06:35:03;;;;;;;;;;;19.00;77.10;;;;;;4991321;28;19941;-77
2022/08/17 06:37:48;;;;;;;;;;;19.00;77.20;;;;;;5010888;28;19925;-76
2022/08/17 06:40:27;;;;;;;;;;;19.00;77.20;;;;;;5004441;28;19933;-75
2022/08/17 06:42:59;;;;;;;;;;;19.00;77.20;;;;;;4994553;28;19926;-75
2022/08/17 06:45:28;;;;;;;;;;;19.00;77.20;;;;;;5010543;28;19930;-75
2022/08/17 06:47:59;;;;;;;;;;;19.00;77.30;;;;;;5008053;28;20288;-76
2022/08/17 06:50:30;;;;;;;;;;;19.00;77.20;;;;;;5004206;28;19975;-76
2022/08/17 06:53:00;;;;;;;;;;;19.00;77.10;;;;;;5007399;28;19926;-75
2022/08/17 06:55:32;;;;;;;;;;;19.00;77.30;;;;;;5002645;28;19971;-74
2022/08/17 06:58:02;;;;;;;;;;;19.10;77.50;;;;;;5001294;28;20449;-75
2022/08/17 07:00:33;;;;;;;;;;;19.10;77.50;;;;;;5007893;28;19930;-75
2022/08/17 07:03:04;;;;;;;;;;;19.10;77.40;;;;;;5009950;28;20387;-74
2022/08/17 07:05:35;;;;;;;;;;;19.10;77.40;;;;;;5011353;28;19925;-76
2022/08/17 07:08:04;;;;;;;;;;;19.20;77.50;;;;;;5046675;22;19924;-78
2022/08/17 07:10:36;;;;;;;;;;;19.20;77.40;;;;;;4956850;23;20323;-75
2022/08/17 07:13:09;;;;;;;;;;;19.20;77.40;;;;;;5008080;28;19926;-75
2022/08/17 07:15:40;;;;;;;;;;;19.20;77.40;;;;;;5010649;28;19979;-75
2022/08/17 07:18:07;;;;;;;;;;;19.30;77.70;;;;;;4988472;28;19934;-76
2022/08/17 07:20:34;;;;;;;;;;;19.30;77.70;;;;;;5009440;28;19925;-77
2022/08/17 07:23:03;;;;;;;;;;;19.30;77.60;;;;;;5004361;28;19933;-76
2022/08/17 07:25:30;;;;;;;;;;;19.30;77.50;;;;;;5007188;28;20080;-77
2022/08/17 07:27:59;;;;;;;;;;;19.40;77.60;;;;;;5001741;28;19956;-75
2022/08/17 07:30:27;;;;;;;;;;;19.40;77.60;;;;;;5006637;28;19962;-75
2022/08/17 07:32:57;;;;;;;;;;;19.40;77.60;;;;;;5000444;28;20377;-77
2022/08/17 07:35:32;;;;;;;;;;;19.40;77.70;;;;;;5001758;28;20327;-74
2022/08/17 07:38:08;;;;;;;;;;;19.40;77.70;;;;;;4987964;28;19925;-75
2022/08/17 07:40:36;;;;;;;;;;;19.40;77.70;;;;;;5001610;28;19933;-74
2022/08/17 07:43:13;;;;;;;;;;;19.40;77.60;;;;;;5004274;28;20022;-75
2022/08/17 07:48:35;;;;;;;;;;;19.50;77.90;;;;;;5007438;28;19929;-75
2022/08/17 07:51:14;;;;;;;;;;;19.50;77.90;;;;;;5005723;28;19964;-75
2022/08/17 07:53:41;;;;;;;;;;;19.50;77.90;;;;;;5001615;28;20344;-75
2022/08/17 07:56:08;;;;;;;;;;;19.50;77.80;;;;;;5008833;28;20016;-76
2022/08/17 07:58:36;;;;;;;;;;;19.50;77.90;;;;;;4987015;28;19926;-75
2022/08/17 08:01:05;;;;;;;;;;;19.50;78.10;;;;;;4987389;28;20024;-75
2022/08/17 08:03:32;;;;;;;;;;;19.50;77.80;;;;;;4985298;28;19929;-75
2022/08/17 08:06:01;;;;;;;;;;;19.50;77.90;;;;;;5009056;28;19925;-75
2022/08/17 08:08:30;;;;;;;;;;;19.60;78.10;;;;;;5005516;28;19934;-77
2022/08/17 08:10:59;;;;;;;;;;;19.60;78.20;;;;;;5010286;28;20079;-75
2022/08/17 08:13:27;;;;;;;;;;;19.60;78.20;;;;;;5004037;28;19925;-75
2022/08/17 08:15:56;;;;;;;;;;;19.60;78.20;;;;;;5002769;28;20387;-78
2022/08/17 08:18:25;;;;;;;;;;;19.60;78.20;;;;;;5009508;28;19979;-76
2022/08/17 08:20:54;;;;;;;;;;;19.70;78.50;;;;;;4988898;28;19933;-77
2022/08/17 08:23:31;;;;;;;;;;;19.70;78.60;;;;;;5001313;28;19929;-75
2022/08/17 08:26:03;;;;;;;;;;;19.70;78.50;;;;;;5005961;28;20573;-75
2022/08/17 08:28:35;;;;;;;;;;;19.80;78.70;;;;;;4997801;28;19929;-77
2022/08/17 08:31:05;;;;;;;;;;;19.80;78.80;;;;;;5003906;28;20363;-76
2022/08/17 08:33:39;;;;;;;;;;;19.80;78.80;;;;;;4995483;28;20574;-75
2022/08/17 08:36:11;;;;;;;;;;;19.80;78.80;;;;;;5003466;28;20014;-76
2022/08/17 08:38:44;;;;;;;;;;;19.90;79.10;;;;;;5002682;28;20384;-75
2022/08/17 08:41:19;;;;;;;;;;;19.90;79.00;;;;;;5009035;28;19932;-79
2022/08/17 08:43:51;;;;;;;;;;;19.90;79.00;;;;;;4995931;28;19925;-76
2022/08/17 08:46:23;;;;;;;;;;;19.90;79.10;;;;;;5002116;28;19976;-75
2022/08/17 08:49:01;;;;;;;;;;;19.90;78.90;;;;;;4986091;28;19996;-75
2022/08/17 08:51:35;;;;;;;;;;;19.90;79.10;;;;;;5002728;28;19980;-75
2022/08/17 08:54:07;;;;;;;;;;;20.00;79.20;;;;;;4987709;28;20296;-75
2022/08/17 08:56:36;;;;;;;;;;;20.00;79.10;;;;;;5005397;28;19937;-75
2022/08/17 08:59:06;;;;;;;;;;;20.00;79.20;;;;;;5002420;28;19933;-75
2022/08/17 09:01:37;;;;;;;;;;;20.00;79.10;;;;;;4980513;28;19934;-75
2022/08/17 09:04:11;;;;;;;;;;;20.10;79.20;;;;;;5003029;28;19972;-76
2022/08/17 09:06:44;;;;;;;;;;;20.10;79.20;;;;;;4990947;28;19930;-75
2022/08/17 09:09:14;;;;;;;;;;;20.10;79.20;;;;;;4989043;28;19936;-75
2022/08/17 09:11:44;;;;;;;;;;;20.10;79.10;;;;;;4984119;28;19925;-76
2022/08/17 09:14:14;;;;;;;;;;;20.10;79.20;;;;;;5004855;28;19936;-75
2022/08/17 09:16:44;;;;;;;;;;;20.10;79.20;;;;;;4988246;28;20336;-75
2022/08/17 09:19:15;;;;;;;;;;;20.20;79.20;;;;;;5001167;28;19980;-75
2022/08/17 09:21:43;;;;;;;;;;;20.20;79.30;;;;;;5001444;28;19984;-76
2022/08/17 09:24:13;;;;;;;;;;;20.20;79.30;;;;;;5000608;28;19933;-76
2022/08/17 09:26:42;;;;;;;;;;;20.30;79.40;;;;;;4993129;28;20392;-77
2022/08/17 09:29:10;;;;;;;;;;;20.30;79.40;;;;;;4982202;28;19929;-75
2022/08/17 09:31:41;;;;;;;;;;;20.30;79.50;;;;;;5001307;28;20454;-76
2022/08/17 09:34:12;;;;;;;;;;;20.30;79.50;;;;;;4997669;28;19926;-77
2022/08/17 09:36:41;;;;;;;;;;;20.40;79.60;;;;;;4999813;28;19948;-76
2022/08/17 09:39:11;;;;;;;;;;;20.40;79.60;;;;;;4990905;28;21330;-75
2022/08/17 09:41:41;;;;;;;;;;;20.40;79.60;;;;;;5000455;28;19926;-75
2022/08/17 09:44:16;;;;;;;;;;;20.40;79.70;;;;;;4998287;28;20343;-75
2022/08/17 09:46:47;;;;;;;;;;;20.50;79.60;;;;;;5005038;28;19930;-78
2022/08/17 09:49:19;;;;;;;;;;;20.50;79.80;;;;;;5008901;28;19925;-79
2022/08/17 09:51:48;;;;;;;;;;;20.50;79.70;;;;;;5004117;28;19934;-77
2022/08/17 09:54:18;;;;;;;;;;;20.60;79.80;;;;;;5000505;28;19980;-76
2022/08/17 09:56:49;;;;;;;;;;;20.60;79.90;;;;;;4999185;28;19932;-76
2022/08/17 09:59:26;;;;;;;;;;;20.60;79.80;;;;;;5003321;28;19929;-74
2022/08/17 10:01:55;;;;;;;;;;;20.60;79.80;;;;;;4998227;28;19934;-78
2022/08/17 10:04:32;;;;;;;;;;;20.70;80.00;;;;;;5007250;28;19933;-75
2022/08/17 10:07:03;;;;;;;;;;;20.70;79.90;;;;;;5005933;28;20063;-76
2022/08/17 10:09:38;;;;;;;;;;;20.70;80.00;;;;;;5006703;28;20364;-77
2022/08/17 10:12:16;;;;;;;;;;;20.70;79.80;;;;;;4998801;28;19930;-76
2022/08/17 10:14:45;;;;;;;;;;;20.80;79.80;;;;;;5001915;28;20314;-75
2022/08/17 10:17:19;;;;;;;;;;;20.80;80.30;;;;;;4979349;28;19926;-75
2022/08/17 10:19:53;;;;;;;;;;;20.80;80.30;;;;;;4999061;28;20424;-75
2022/08/17 10:28:05;;;;;;;;;;;20.90;80.10;;;;;;5004156;28;20342;-77
2022/08/17 10:30:33;;;;;;;;;;;21.00;80.30;;;;;;5002530;28;19930;-77
2022/08/17 10:33:01;;;;;;;;;;;21.00;80.20;;;;;;5002162;28;19933;-77
2022/08/17 10:35:35;;;;;;;;;;;21.10;80.20;;;;;;5004628;28;19934;-77
2022/08/17 10:38:32;;;;;;;;;;;21.10;80.30;;;;;;4995326;28;19957;-77
2022/08/17 10:41:02;;;;;;;;;;;21.10;80.30;;;;;;5006258;28;20438;-77
2022/08/17 10:43:43;;;;;;;;;;;21.20;80.40;;;;;;5001743;28;19972;-76
2022/08/17 10:46:15;;;;;;;;;;;21.20;80.40;;;;;;5013910;23;20032;-78
2022/08/17 10:48:42;;;;;;;;;;;21.30;80.60;;;;;;4988134;28;20312;-78
2022/08/17 10:51:11;;;;;;;;;;;21.30;80.70;;;;;;4986809;28;20399;-77
2022/08/17 10:53:51;;;;;;;;;;;21.30;80.80;;;;;;4985547;28;19942;-77
2022/08/17 10:56:20;;;;;;;;;;;21.30;80.60;;;;;;4985235;28;19980;-75
2022/08/17 10:58:49;;;;;;;;;;;21.40;80.60;;;;;;4987937;28;19969;-76
2022/08/17 11:01:16;;;;;;;;;;;21.40;80.10;;;;;;4987660;28;19933;-77
2022/08/17 11:03:53;;;;;;;;;;;21.50;79.90;;;;;;4986990;28;19926;-80
2022/08/17 11:06:31;;;;;;;;;;;21.50;79.30;;;;;;4983843;28;19925;-78
2022/08/17 11:09:10;;;;;;;;;;;21.60;79.10;;;;;;4998715;28;19934;-75
2022/08/17 11:11:44;;;;;;;;;;;21.60;79.00;;;;;;4986582;28;20020;-76
2022/08/17 11:14:22;;;;;;;;;;;21.70;79.30;;;;;;4989107;28;19936;-77
2022/08/17 11:16:58;;;;;;;;;;;21.80;79.40;;;;;;4993021;28;19925;-76
2022/08/17 11:19:37;;;;;;;;;;;21.80;79.40;;;;;;4993519;28;19961;-76
2022/08/17 11:22:28;;;;;;;;;;;21.80;79.30;;;;;;4965072;28;19941;-79
2022/08/17 11:24:55;;;;;;;;;;;21.80;79.10;;;;;;4986411;28;19934;-78
2022/08/17 11:27:24;;;;;;;;;;;21.90;79.00;;;;;;5001825;28;19930;-77
2022/08/17 11:29:52;;;;;;;;;;;22.00;78.70;;;;;;4968747;28;19933;-78
2022/08/17 11:32:36;;;;;;;;;;;22.00;78.70;;;;;;4984953;28;20024;-77
2022/08/17 11:35:10;;;;;;;;;;;22.10;78.30;;;;;;4988619;28;20388;-78
2022/08/17 11:37:50;;;;;;;;;;;22.10;78.20;;;;;;4980045;28;19934;-79
2022/08/17 11:40:33;;;;;;;;;;;22.20;78.00;;;;;;4985450;28;19926;-80
2022/08/17 11:43:06;;;;;;;;;;;22.20;78.20;;;;;;4989287;28;19944;-78
2022/08/17 11:45:39;;;;;;;;;;;22.20;78.30;;;;;;4990241;28;19955;-79
2022/08/17 11:54:00;;;;;;;;;;;22.40;77.50;;;;;;4993756;28;19922;-79
2022/08/17 11:56:33;;;;;;;;;;;22.40;77.10;;;;;;4985626;28;20391;-79
2022/08/17 11:59:00;;;;;;;;;;;22.50;77.30;;;;;;4984280;28;19989;-79
2022/08/17 12:01:48;;;;;;;;;;;22.50;77.40;;;;;;4983236;28;20331;-77
2022/08/17 12:04:18;;;;;;;;;;;22.50;77.40;;;;;;5008186;22;20687;-76
2022/08/17 12:09:17;;;;;;;;;;;22.60;77.00;;;;;;4948554;28;19933;-79
2022/08/17 12:11:47;;;;;;;;;;;22.70;76.70;;;;;;4950672;28;20381;-78
2022/08/17 12:14:15;;;;;;;;;;;22.70;76.30;;;;;;4939534;28;20094;-76
2022/08/17 12:16:43;;;;;;;;;;;22.80;76.00;;;;;;4963995;28;19934;-79
2022/08/17 12:19:18;;;;;;;;;;;22.90;75.90;;;;;;4968994;28;19965;-77
2022/08/17 12:21:49;;;;;;;;;;;22.90;75.80;;;;;;4947527;28;19926;-78
2022/08/17 12:24:23;;;;;;;;;;;23.00;76.00;;;;;;4970058;28;19934;-77
2022/08/17 12:26:53;;;;;;;;;;;23.00;76.80;;;;;;4951662;28;19943;-78
2022/08/17 12:29:20;;;;;;;;;;;23.00;76.20;;;;;;4969216;28;19930;-78
2022/08/17 12:31:48;;;;;;;;;;;23.00;76.00;;;;;;4959105;28;19930;-77
2022/08/17 12:34:17;;;;;;;;;;;23.10;76.10;;;;;;4968622;28;20307;-77
2022/08/17 12:36:44;;;;;;;;;;;23.10;76.00;;;;;;4967011;28;20222;-78
2022/08/17 12:39:17;;;;;;;;;;;23.10;76.00;;;;;;4944670;28;19926;-77
2022/08/17 12:41:46;;;;;;;;;;;23.10;75.90;;;;;;4947075;28;19953;-76
2022/08/17 12:44:15;;;;;;;;;;;23.20;75.80;;;;;;4951945;28;19934;-78
2022/08/17 12:46:47;;;;;;;;;;;23.30;75.30;;;;;;4965278;28;20012;-77
2022/08/17 12:49:15;;;;;;;;;;;23.30;75.30;;;;;;4957944;28;20431;-77
2022/08/17 12:51:42;;;;;;;;;;;23.30;75.40;;;;;;4952394;28;19933;-77
2022/08/17 12:54:21;;;;;;;;;;;23.30;75.20;;;;;;4969508;28;20396;-78
2022/08/17 12:56:49;;;;;;;;;;;23.30;75.40;;;;;;4964331;28;19926;-78
2022/08/17 12:59:17;;;;;;;;;;;23.30;75.20;;;;;;4979754;28;19926;-77
2022/08/17 13:01:44;;;;;;;;;;;23.40;75.20;;;;;;4967976;28;19969;-77
2022/08/17 13:04:12;;;;;;;;;;;23.40;74.80;;;;;;4967057;28;19930;-78
2022/08/17 13:06:45;;;;;;;;;;;23.40;74.70;;;;;;4941236;28;19933;-80
2022/08/17 13:09:15;;;;;;;;;;;23.50;74.60;;;;;;4968371;28;19958;-77
2022/08/17 13:11:46;;;;;;;;;;;23.50;74.40;;;;;;4940801;28;19930;-78
2022/08/17 13:14:17;;;;;;;;;;;23.50;74.50;;;;;;4966184;28;20388;-77
2022/08/17 13:16:44;;;;;;;;;;;;;;;;;;4962256;28;19926;-80
2022/08/17 13:19:14;;;;;;;;;;;23.60;73.70;;;;;;4968563;28;19937;-76
2022/08/17 13:21:44;;;;;;;;;;;23.70;74.60;;;;;;4965425;28;19935;-76
2022/08/17 13:24:16;;;;;;;;;;;23.70;74.40;;;;;;4965500;28;19934;-77
2022/08/17 13:26:44;;;;;;;;;;;23.70;74.40;;;;;;4961522;28;19953;-79
2022/08/17 13:29:22;;;;;;;;;;;23.80;74.70;;;;;;4971770;28;20536;-78
2022/08/17 13:31:50;;;;;;;;;;;23.80;74.40;;;;;;4976893;28;20013;-77
2022/08/17 13:34:18;;;;;;;;;;;23.80;74.40;;;;;;4963413;28;19926;-78
2022/08/17 13:36:46;;;;;;;;;;;23.90;74.30;;;;;;4965717;28;20377;-78
2022/08/17 13:39:14;;;;;;;;;;;23.90;74.30;;;;;;4958695;28;19927;-77
2022/08/17 13:41:41;;;;;;;;;;;24.00;74.30;;;;;;4960328;28;19927;-77
2022/08/17 13:44:27;;;;;;;;;;;24.00;74.40;;;;;;4969542;28;19937;-76
2022/08/17 13:46:55;;;;;;;;;;;24.00;74.30;;;;;;4960803;28;19926;-78
2022/08/17 13:49:22;;;;;;;;;;;24.00;73.50;;;;;;4968522;28;19926;-81
2022/08/17 13:51:50;;;;;;;;;;;24.00;74.20;;;;;;4948991;28;19934;-77
2022/08/17 13:54:20;;;;;;;;;;;24.10;74.20;;;;;;4965348;28;19926;-79
2022/08/17 13:56:54;;;;;;;;;;;24.10;74.40;;;;;;4960623;28;19930;-78
2022/08/17 13:59:35;;;;;;;;;;;24.10;73.90;;;;;;4953128;28;19977;-80
2022/08/17 14:02:03;;;;;;;;;;;24.10;74.00;;;;;;4967413;28;19934;-77
2022/08/17 14:04:31;;;;;;;;;;;24.20;74.00;;;;;;4964783;28;20028;-77
2022/08/17 14:07:00;;;;;;;;;;;24.20;74.10;;;;;;4968313;28;20412;-77
2022/08/17 14:09:28;;;;;;;;;;;24.20;74.30;;;;;;4942790;28;19981;-79
2022/08/17 14:11:56;;;;;;;;;;;24.20;74.50;;;;;;4953183;28;20372;-78
2022/08/17 14:14:23;;;;;;;;;;;24.20;74.40;;;;;;4975215;28;19927;-78
2022/08/17 14:16:50;;;;;;;;;;;24.30;74.10;;;;;;4952746;28;20175;-78
2022/08/17 14:19:20;;;;;;;;;;;24.30;73.90;;;;;;4965293;28;19930;-78
2022/08/17 14:21:48;;;;;;;;;;;24.30;73.70;;;;;;4966940;28;19926;-81
2022/08/17 14:24:19;;;;;;;;;;;24.40;73.80;;;;;;4967624;28;20028;-77
2022/08/17 14:26:46;;;;;;;;;;;24.40;73.40;;;;;;4966093;28;19953;-78
2022/08/17 14:29:13;;;;;;;;;;;24.40;73.50;;;;;;4970708;28;19962;-78
2022/08/17 14:31:40;;;;;;;;;;;24.40;73.80;;;;;;4966891;28;19930;-78
2022/08/17 14:34:06;;;;;;;;;;;24.50;73.40;;;;;;4962045;28;19926;-77
2022/08/17 14:36:35;;;;;;;;;;;24.60;73.10;;;;;;4965631;28;19938;-77
2022/08/17 14:39:01;;;;;;;;;;;24.60;73.20;;;;;;4965055;28;19949;-79
2022/08/17 14:41:29;;;;;;;;;;;24.60;72.80;;;;;;4966748;28;20355;-77
2022/08/17 14:43:56;;;;;;;;;;;24.60;72.80;;;;;;4966050;28;19934;-82
2022/08/17 14:46:23;;;;;;;;;;;24.60;72.90;;;;;;4949819;28;19930;-77
2022/08/17 14:48:52;;;;;;;;;;;24.70;73.10;;;;;;4968589;28;20460;-77
2022/08/17 14:51:20;;;;;;;;;;;24.70;72.60;;;;;;4962139;28;19926;-78
2022/08/17 14:53:49;;;;;;;;;;;24.80;72.30;;;;;;4972311;28;19926;-77
2022/08/17 14:56:16;;;;;;;;;;;24.80;72.70;;;;;;4971731;28;20360;-77
2022/08/17 14:58:43;;;;;;;;;;;24.80;72.80;;;;;;4965265;28;19926;-79
2022/08/17 15:01:10;;;;;;;;;;;24.90;73.20;;;;;;4964042;28;19965;-77
2022/08/17 15:03:37;;;;;;;;;;;24.90;73.20;;;;;;4970266;28;20363;-78